createdAt,value
2022-10-05T00:00:00.134Z,1.90
2022-10-05T00:02:27.129Z,1.58
2022-10-05T00:04:57.020Z,1.40
2022-10-05T00:07:24.695Z,1.17
2022-10-05T00:09:58.703Z,1.15
2022-10-05T00:12:27.014Z,1.50
2022-10-05T00:14:57.965Z,1.92
2022-10-05T00:17:27.360Z,1.70
2022-10-05T00:19:54.175Z,2.05
2022-10-05T00:22:29.897Z,1.98
2022-10-05T00:24:58.925Z,1.42
2022-10-05T00:27:37.515Z,2.13
2022-10-05T00:30:19.712Z,0.82
2022-10-05T00:32:47.119Z,1.83
2022-10-05T00:35:15.641Z,1.60
2022-10-05T00:37:42.245Z,1.27
2022-10-05T00:40:41.725Z,1.52
2022-10-05T00:43:40.161Z,2.13
2022-10-05T00:46:16.059Z,1.33
2022-10-05T00:48:55.376Z,1.10
2022-10-05T00:51:28.388Z,1.77
2022-10-05T00:53:54.774Z,1.05
2022-10-05T00:56:36.157Z,2.05
2022-10-05T00:59:08.633Z,1.38
2022-10-05T01:01:48.472Z,2.03
2022-10-05T01:04:54.104Z,1.20
2022-10-05T01:07:30.394Z,1.33
2022-10-05T01:10:11.632Z,1.52
2022-10-05T01:13:19.272Z,1.52
2022-10-05T01:15:55.569Z,1.10
2022-10-05T01:18:39.981Z,0.88
2022-10-05T01:21:11.774Z,1.50
2022-10-05T01:23:41.443Z,1.45
2022-10-05T01:26:16.179Z,1.15
2022-10-05T01:28:52.386Z,0.70
2022-10-05T01:31:37.742Z,1.85
2022-10-05T01:34:16.908Z,0.60
2022-10-05T01:37:03.936Z,1.30
2022-10-05T01:39:39.121Z,1.00
2022-10-05T01:42:29.893Z,1.05
2022-10-05T01:45:31.602Z,1.08
2022-10-05T01:48:00.933Z,1.38
2022-10-05T01:50:59.301Z,0.77
2022-10-05T01:54:06.762Z,1.23
2022-10-05T01:56:43.514Z,2.42
2022-10-05T01:59:19.318Z,1.20
2022-10-05T02:02:02.004Z,2.13
2022-10-05T02:05:00.926Z,0.80
2022-10-05T02:07:28.953Z,0.95
2022-10-05T02:10:00.709Z,1.08
2022-10-05T02:12:31.433Z,0.85
2022-10-05T02:15:08.121Z,1.42
2022-10-05T02:17:47.393Z,1.20
2022-10-05T02:20:22.515Z,1.42
2022-10-05T02:22:55.947Z,1.05
2022-10-05T02:25:27.882Z,1.10
2022-10-05T02:28:24.965Z,1.45
2022-10-05T02:30:56.780Z,2.45
2022-10-05T02:33:28.944Z,0.73
2022-10-05T02:36:00.268Z,1.50
2022-10-05T02:38:39.021Z,0.90
2022-10-05T02:41:26.719Z,1.17
2022-10-05T02:44:04.918Z,1.05
2022-10-05T02:47:10.161Z,0.85
2022-10-05T02:49:47.866Z,1.38
2022-10-05T02:52:33.740Z,0.77
2022-10-05T02:55:17.885Z,0.60
2022-10-05T02:57:59.886Z,0.45
2022-10-05T03:00:32.232Z,1.10
2022-10-05T03:03:23.877Z,1.00
2022-10-05T03:06:15.073Z,0.60
2022-10-05T03:08:47.138Z,0.98
2022-10-05T03:11:30.728Z,1.00
2022-10-05T03:14:03.296Z,0.73
2022-10-05T03:16:51.612Z,1.58
2022-10-05T03:19:55.000Z,1.00
2022-10-05T03:23:03.549Z,0.60
2022-10-05T03:25:48.169Z,1.55
2022-10-05T03:28:23.663Z,0.63
2022-10-05T03:31:02.987Z,0.80
2022-10-05T03:33:40.697Z,0.75
2022-10-05T03:36:25.152Z,0.82
2022-10-05T03:39:25.415Z,1.35
2022-10-05T03:41:57.724Z,0.90
2022-10-05T03:44:40.973Z,1.08
2022-10-05T03:47:10.409Z,1.05
2022-10-05T03:50:16.136Z,1.08
2022-10-05T03:52:54.816Z,0.75
2022-10-05T03:55:36.077Z,0.60
2022-10-05T03:58:10.570Z,1.08
2022-10-05T04:00:39.017Z,0.60
2022-10-05T04:03:15.729Z,1.02
2022-10-05T04:05:48.815Z,1.25
2022-10-05T04:08:20.973Z,1.02
2022-10-05T04:10:56.047Z,1.50
2022-10-05T04:13:36.708Z,1.13
2022-10-05T04:16:23.869Z,1.17
2022-10-05T04:19:01.377Z,1.08
2022-10-05T04:21:36.107Z,0.65
2022-10-05T04:24:11.513Z,0.77
2022-10-05T04:26:49.711Z,1.08
2022-10-05T04:29:29.220Z,1.00
2022-10-05T04:32:16.140Z,0.90
2022-10-05T04:35:10.366Z,1.25
2022-10-05T04:37:53.613Z,0.70
2022-10-05T04:40:35.464Z,0.90
2022-10-05T04:43:13.412Z,1.08
2022-10-05T04:46:08.190Z,0.63
2022-10-05T04:48:46.612Z,1.08
2022-10-05T04:51:16.016Z,1.40
2022-10-05T04:53:58.657Z,0.57
2022-10-05T04:56:25.056Z,1.35
2022-10-05T04:59:29.109Z,0.70
2022-10-05T05:02:11.360Z,1.15
2022-10-05T05:04:51.982Z,1.83
2022-10-05T05:07:39.781Z,2.65
2022-10-05T05:10:24.480Z,1.40
2022-10-05T05:13:20.652Z,1.20
2022-10-05T05:16:00.920Z,3.53
2022-10-05T05:18:46.721Z,0.77
2022-10-05T05:24:02.656Z,1.52
2022-10-05T05:27:10.624Z,1.85
2022-10-05T05:30:02.662Z,2.65
2022-10-05T05:33:00.040Z,1.10
2022-10-05T05:35:45.174Z,1.50
2022-10-05T05:38:26.953Z,1.10
2022-10-05T05:41:03.205Z,1.02
2022-10-05T05:43:38.055Z,1.25
2022-10-05T05:46:13.709Z,2.13
2022-10-05T05:48:43.656Z,1.30
2022-10-05T05:51:16.267Z,1.33
2022-10-05T05:53:45.788Z,1.40
2022-10-05T05:56:14.853Z,2.08
2022-10-05T05:58:52.222Z,1.45
2022-10-05T06:01:42.034Z,1.92
2022-10-05T06:04:15.914Z,1.38
2022-10-05T06:06:50.888Z,1.45
2022-10-05T06:10:02.770Z,1.85
2022-10-05T06:12:34.554Z,2.58
2022-10-05T06:15:13.864Z,3.28
2022-10-05T06:17:52.753Z,2.80
2022-10-05T06:20:36.948Z,1.60
2022-10-05T06:23:14.125Z,1.95
2022-10-05T06:26:10.515Z,1.42
2022-10-05T06:28:37.163Z,2.22
2022-10-05T06:31:09.485Z,1.58
2022-10-05T06:33:51.716Z,1.48
2022-10-05T06:36:18.134Z,1.48
2022-10-05T06:39:16.927Z,1.55
2022-10-05T06:41:52.072Z,1.35
2022-10-05T06:44:47.649Z,1.55
2022-10-05T06:47:26.213Z,1.73
2022-10-05T06:50:07.589Z,1.40
2022-10-05T06:52:48.863Z,1.73
2022-10-05T06:55:30.431Z,2.25
2022-10-05T06:58:21.764Z,1.75
2022-10-05T07:00:58.426Z,1.85
2022-10-05T07:03:55.088Z,1.60
2022-10-05T07:06:34.189Z,1.95
2022-10-05T07:09:00.604Z,1.98
2022-10-05T07:11:51.493Z,2.25
2022-10-05T07:14:54.557Z,1.70
2022-10-05T07:17:42.561Z,1.90
2022-10-05T07:20:30.836Z,1.55
2022-10-05T07:23:11.816Z,1.75
2022-10-05T07:25:52.357Z,2.22
2022-10-05T07:28:28.501Z,1.90
2022-10-05T07:31:03.839Z,1.85
2022-10-05T07:33:33.363Z,1.45
2022-10-05T07:36:24.550Z,2.25
2022-10-05T07:39:04.792Z,1.50
2022-10-05T07:41:44.886Z,1.83
2022-10-05T07:44:23.337Z,1.75
2022-10-05T07:47:10.746Z,1.77
2022-10-05T07:50:04.110Z,1.63
2022-10-05T07:52:42.162Z,1.73
2022-10-05T07:55:26.904Z,2.38
2022-10-05T07:58:13.090Z,2.40
2022-10-05T08:00:49.964Z,1.80
2022-10-05T08:03:22.828Z,1.95
2022-10-05T08:05:49.381Z,2.22
2022-10-05T08:08:23.720Z,2.08
2022-10-05T08:11:02.970Z,2.20
2022-10-05T08:13:38.101Z,2.10
2022-10-05T08:16:14.436Z,2.35
2022-10-05T08:19:17.520Z,2.25
2022-10-05T08:22:04.136Z,2.00
2022-10-05T08:24:59.348Z,2.17
2022-10-05T08:27:36.047Z,2.33
2022-10-05T08:30:13.093Z,2.78
2022-10-05T08:32:50.396Z,2.53
2022-10-05T08:35:51.705Z,2.55
2022-10-05T08:38:24.264Z,2.22
2022-10-05T08:41:23.297Z,4.10
2022-10-05T08:44:27.837Z,1.95
2022-10-05T08:47:09.017Z,2.42
2022-10-05T08:49:38.081Z,2.30
2022-10-05T08:52:16.669Z,2.00
2022-10-05T08:55:00.862Z,2.13
2022-10-05T08:57:33.089Z,2.20
2022-10-05T09:00:12.983Z,3.03
2022-10-05T09:03:22.070Z,2.38
2022-10-05T09:06:14.535Z,3.83
2022-10-05T09:09:08.816Z,2.50
2022-10-05T09:11:39.477Z,2.72
2022-10-05T09:14:14.351Z,2.63
2022-10-05T09:16:59.499Z,2.17
2022-10-05T09:19:34.602Z,2.17
2022-10-05T09:22:15.071Z,2.08
2022-10-05T09:25:03.837Z,2.28
2022-10-05T09:27:36.905Z,2.63
2022-10-05T09:30:22.560Z,1.73
2022-10-05T09:35:48.693Z,3.10
2022-10-05T09:38:40.580Z,2.70
2022-10-05T09:41:10.231Z,2.60
2022-10-05T09:43:45.353Z,2.83
2022-10-05T09:46:44.870Z,2.22
2022-10-05T09:49:38.500Z,2.10
2022-10-05T09:52:19.175Z,1.88
2022-10-05T09:55:05.493Z,2.30
2022-10-05T09:57:32.037Z,2.20
2022-10-05T10:00:36.068Z,2.60
2022-10-05T10:03:27.397Z,2.47
2022-10-05T10:06:24.342Z,2.67
2022-10-05T10:09:21.557Z,2.20
2022-10-05T10:12:26.918Z,2.33
2022-10-05T10:15:32.077Z,1.42
2022-10-05T10:18:22.717Z,1.80
2022-10-05T10:21:07.811Z,1.80
2022-10-05T10:23:37.340Z,2.80
2022-10-05T10:26:25.255Z,1.67
2022-10-05T10:29:10.196Z,2.75
2022-10-05T10:31:55.941Z,1.80
2022-10-05T10:34:46.761Z,2.03
2022-10-05T10:37:47.485Z,2.42
2022-10-05T10:40:46.417Z,2.47
2022-10-05T10:43:43.556Z,1.92
2022-10-05T10:46:12.659Z,2.28
2022-10-05T10:48:54.530Z,2.17
2022-10-05T10:51:39.478Z,2.97
2022-10-05T10:54:54.022Z,1.85
2022-10-05T10:57:44.034Z,1.52
2022-10-05T11:00:36.731Z,1.67
2022-10-05T11:03:33.133Z,1.35
2022-10-05T11:06:30.270Z,2.58
2022-10-05T11:09:40.904Z,1.80
2022-10-05T11:12:20.565Z,1.60
2022-10-05T11:18:00.172Z,2.13
2022-10-05T11:20:32.372Z,2.70
2022-10-05T11:23:38.923Z,2.53
2022-10-05T11:26:17.616Z,4.97
2022-10-05T11:29:02.543Z,2.60
2022-10-05T11:31:44.108Z,2.78
2022-10-05T11:34:32.426Z,4.43
2022-10-05T11:37:16.906Z,7.72
2022-10-05T11:39:55.412Z,10.40
2022-10-05T11:42:40.008Z,7.15
2022-10-05T11:45:24.352Z,9.40
2022-10-05T11:48:17.935Z,8.57
2022-10-05T11:51:27.829Z,12.35
2022-10-05T11:54:06.977Z,11.63
2022-10-05T11:56:42.531Z,7.57
2022-10-05T11:59:19.396Z,12.10
2022-10-05T12:01:55.895Z,12.93
2022-10-05T12:04:31.123Z,13.43
2022-10-05T12:07:55.809Z,11.50
2022-10-05T12:10:24.981Z,11.25
2022-10-05T12:13:13.237Z,15.10
2022-10-05T12:16:07.229Z,11.57
2022-10-05T12:18:34.194Z,9.60
2022-10-05T12:21:00.686Z,16.38
2022-10-05T12:23:48.964Z,10.63
2022-10-05T12:26:24.493Z,11.27
2022-10-05T12:28:55.900Z,10.75
2022-10-05T12:31:43.269Z,11.07
2022-10-05T12:34:26.637Z,11.80
2022-10-05T12:37:09.297Z,12.13
2022-10-05T12:39:53.610Z,10.68
2022-10-05T12:42:30.424Z,11.52
2022-10-05T12:45:27.175Z,12.02
2022-10-05T12:48:18.779Z,9.05
2022-10-05T12:51:00.634Z,10.57
2022-10-05T12:53:51.054Z,12.88
2022-10-05T12:56:38.195Z,9.30
2022-10-05T12:59:19.364Z,10.82
2022-10-05T13:02:11.743Z,8.77
2022-10-05T13:05:00.382Z,6.97
2022-10-05T13:07:26.777Z,11.40
2022-10-05T13:10:14.872Z,7.22
2022-10-05T13:13:03.140Z,7.88
2022-10-05T13:15:48.962Z,10.50
2022-10-05T13:18:29.770Z,9.50
2022-10-05T13:21:04.500Z,10.02
2022-10-05T13:24:13.945Z,9.10
2022-10-05T13:26:53.592Z,8.65
2022-10-05T13:29:28.186Z,10.80
2022-10-05T13:32:00.401Z,9.25
2022-10-05T13:34:26.819Z,13.18
2022-10-05T13:37:11.634Z,9.07
2022-10-05T13:39:44.181Z,9.63
2022-10-05T13:42:43.957Z,8.30
2022-10-05T13:45:15.764Z,8.82
2022-10-05T13:48:21.047Z,10.70
2022-10-05T13:51:07.424Z,9.85
2022-10-05T13:53:39.625Z,9.10
2022-10-05T13:56:16.716Z,8.85
2022-10-05T13:58:56.457Z,10.88
2022-10-05T14:01:34.729Z,7.68
2022-10-05T14:04:04.188Z,8.88
2022-10-05T14:06:32.701Z,8.93
2022-10-05T14:08:59.918Z,10.32
2022-10-05T14:11:34.870Z,7.53
2022-10-05T14:14:10.139Z,6.90
2022-10-05T14:16:49.593Z,7.28
2022-10-05T14:21:55.117Z,7.13
2022-10-05T14:24:45.154Z,7.45
2022-10-05T14:27:21.194Z,7.75
2022-10-05T14:29:56.481Z,7.68
2022-10-05T14:32:25.133Z,7.47
2022-10-05T14:34:57.410Z,7.70
2022-10-05T14:37:26.200Z,7.68
2022-10-05T14:39:57.616Z,10.57
2022-10-05T14:42:27.050Z,8.48
2022-10-05T14:45:11.589Z,6.32
2022-10-05T14:47:49.106Z,7.25
2022-10-05T14:50:17.892Z,6.80
2022-10-05T14:53:14.059Z,9.00
2022-10-05T14:55:43.745Z,7.28
2022-10-05T14:58:32.037Z,8.00
2022-10-05T15:01:13.622Z,6.53
2022-10-05T15:04:16.722Z,4.75
2022-10-05T15:06:55.518Z,7.38
2022-10-05T15:09:49.802Z,9.27
2022-10-05T15:12:29.283Z,6.30
2022-10-05T15:15:02.924Z,9.27
2022-10-05T15:18:05.712Z,6.88
2022-10-05T15:20:46.287Z,6.38
2022-10-05T15:23:24.905Z,8.32
2022-10-05T15:26:07.798Z,6.00
2022-10-05T15:28:49.745Z,6.45
2022-10-05T15:31:40.482Z,6.30
2022-10-05T15:34:16.324Z,6.47
2022-10-05T15:36:45.277Z,6.63
2022-10-05T15:39:43.972Z,6.20
2022-10-05T15:42:14.666Z,8.27
2022-10-05T15:44:59.805Z,7.32
2022-10-05T15:47:46.065Z,4.10
2022-10-05T15:50:32.424Z,7.40
2022-10-05T15:53:19.843Z,5.72
2022-10-05T15:55:56.484Z,7.95
2022-10-05T15:58:43.332Z,6.00
2022-10-05T16:01:18.711Z,7.85
2022-10-05T16:03:50.528Z,7.13
2022-10-05T16:06:56.849Z,4.97
2022-10-05T16:09:35.874Z,6.30
2022-10-05T16:12:29.084Z,7.95
2022-10-05T16:15:17.667Z,6.88
2022-10-05T16:18:03.008Z,5.93
2022-10-05T16:20:45.800Z,5.10
2022-10-05T16:23:40.229Z,4.28
2022-10-05T16:26:15.334Z,6.45
2022-10-05T16:28:59.558Z,5.57
2022-10-05T16:31:47.823Z,5.45
2022-10-05T16:34:24.439Z,6.50
2022-10-05T16:37:05.821Z,5.07
2022-10-05T16:39:52.702Z,5.20
2022-10-05T16:42:29.607Z,5.70
2022-10-05T16:45:17.736Z,4.32
2022-10-05T16:47:56.424Z,4.90
2022-10-05T16:50:44.678Z,7.50
2022-10-05T16:53:19.376Z,5.55
2022-10-05T16:55:50.264Z,4.85
2022-10-05T16:58:31.688Z,6.32
2022-10-05T17:01:20.211Z,7.28
2022-10-05T17:04:39.085Z,7.25
2022-10-05T17:07:13.851Z,5.22
2022-10-05T17:09:55.883Z,4.88
2022-10-05T17:12:31.574Z,3.65
2022-10-05T17:15:30.320Z,4.03
2022-10-05T17:18:16.626Z,5.70
2022-10-05T17:20:50.707Z,5.78
2022-10-05T17:23:18.327Z,3.97
2022-10-05T17:26:22.444Z,4.80
2022-10-05T17:28:51.971Z,6.32
2022-10-05T17:31:21.720Z,4.72
2022-10-05T17:33:54.684Z,4.88
2022-10-05T17:36:21.419Z,4.88
2022-10-05T17:38:51.077Z,4.10
2022-10-05T17:41:28.673Z,5.13
2022-10-05T17:44:13.673Z,4.45
2022-10-05T17:46:47.983Z,4.00
2022-10-05T17:49:17.289Z,4.30
2022-10-05T17:52:02.317Z,3.25
2022-10-05T17:54:49.563Z,3.67
2022-10-05T17:57:21.135Z,4.63
2022-10-05T17:59:56.903Z,3.08
2022-10-05T18:02:39.087Z,4.70
2022-10-05T18:05:17.611Z,3.38
2022-10-05T18:07:49.705Z,3.20
2022-10-05T18:10:29.033Z,2.78
2022-10-05T18:15:27.881Z,3.88
2022-10-05T18:17:57.184Z,3.88
2022-10-05T18:20:26.686Z,2.58
2022-10-05T18:23:14.442Z,4.25
2022-10-05T18:26:01.330Z,3.25
2022-10-05T18:28:36.259Z,2.80
2022-10-05T18:31:09.688Z,4.35
2022-10-05T18:34:15.089Z,3.30
2022-10-05T18:37:00.718Z,3.15
2022-10-05T18:42:27.206Z,2.88
2022-10-05T18:44:59.159Z,4.00
2022-10-05T18:47:34.853Z,3.33
2022-10-05T18:50:21.476Z,3.53
2022-10-05T18:52:53.685Z,3.80
2022-10-05T18:55:33.162Z,3.75
2022-10-05T18:58:10.868Z,3.90
2022-10-05T19:00:46.374Z,2.53
2022-10-05T19:03:46.437Z,4.22
2022-10-05T19:06:33.494Z,2.50
2022-10-05T19:09:22.784Z,3.95
2022-10-05T19:12:05.255Z,3.65
2022-10-05T19:14:44.105Z,3.33
2022-10-05T19:17:40.432Z,2.88
2022-10-05T19:20:20.928Z,2.85
2022-10-05T19:23:15.264Z,4.13
2022-10-05T19:25:53.004Z,2.92
2022-10-05T19:28:41.061Z,2.60
2022-10-05T19:31:13.439Z,2.78
2022-10-05T19:34:01.573Z,3.10
2022-10-05T19:36:37.032Z,3.67
2022-10-05T19:39:21.417Z,2.83
2022-10-05T19:41:59.833Z,3.75
2022-10-05T19:44:36.380Z,3.03
2022-10-05T19:47:18.779Z,3.35
2022-10-05T19:49:56.955Z,4.07
2022-10-05T19:52:36.345Z,3.83
2022-10-05T19:55:15.298Z,2.70
2022-10-05T19:57:50.969Z,4.60
2022-10-05T20:00:31.347Z,3.85
2022-10-05T20:03:29.189Z,3.28
2022-10-05T20:08:47.468Z,2.88
2022-10-05T20:11:16.496Z,2.70
2022-10-05T20:14:09.450Z,2.40
2022-10-05T20:16:54.810Z,3.30
2022-10-05T20:19:47.440Z,3.22
2022-10-05T20:22:39.599Z,2.95
2022-10-05T20:25:18.002Z,2.80
2022-10-05T20:27:50.137Z,3.83
2022-10-05T20:30:20.810Z,3.20
2022-10-05T20:32:52.404Z,3.40
2022-10-05T20:35:22.986Z,3.05
2022-10-05T20:37:52.311Z,3.08
2022-10-05T20:40:20.313Z,2.90
2022-10-05T20:42:47.964Z,2.70
2022-10-05T20:45:14.677Z,3.97
2022-10-05T20:47:42.156Z,3.58
2022-10-05T20:52:37.424Z,3.45
2022-10-05T20:55:09.891Z,4.25
2022-10-05T20:57:42.252Z,3.53
2022-10-05T21:00:10.550Z,2.90
2022-10-05T21:02:38.718Z,4.70
2022-10-05T21:05:05.945Z,2.92
2022-10-05T21:07:34.240Z,2.75
2022-10-05T21:10:02.326Z,2.30
2022-10-05T21:12:29.042Z,3.05
2022-10-05T21:14:55.545Z,3.55
2022-10-05T21:17:21.981Z,3.17
2022-10-05T21:19:48.477Z,3.58
2022-10-05T21:22:14.928Z,3.75
2022-10-05T21:24:41.440Z,2.83
2022-10-05T21:27:08.610Z,3.30
2022-10-05T21:29:36.493Z,2.58
2022-10-05T21:32:08.314Z,4.55
2022-10-05T21:34:35.137Z,3.17
2022-10-05T21:37:01.669Z,2.75
2022-10-05T21:39:28.168Z,3.75
2022-10-05T21:41:54.700Z,3.17
2022-10-05T21:44:21.141Z,3.85
2022-10-05T21:46:48.448Z,2.78
2022-10-05T21:49:17.511Z,4.50
2022-10-05T21:51:46.444Z,3.83
2022-10-05T21:54:17.492Z,3.55
2022-10-05T21:56:48.324Z,2.50
2022-10-05T21:59:18.799Z,3.50
2022-10-05T22:01:45.942Z,4.30
2022-10-05T22:04:12.413Z,3.15
2022-10-05T22:06:38.909Z,4.80
2022-10-05T22:09:05.397Z,3.15
2022-10-05T22:11:32.933Z,3.83
2022-10-05T22:14:02.735Z,3.42
2022-10-05T22:16:35.275Z,2.88
2022-10-05T22:19:07.218Z,3.00
2022-10-05T22:21:41.434Z,4.18
2022-10-05T22:24:09.966Z,3.15
2022-10-05T22:26:36.592Z,3.78
2022-10-05T22:29:03.834Z,3.33
2022-10-05T22:31:30.568Z,3.58
2022-10-05T22:33:57.123Z,3.38
2022-10-05T22:36:23.794Z,3.58
2022-10-05T22:38:50.261Z,3.70
2022-10-05T22:41:18.503Z,3.58
2022-10-05T22:43:48.750Z,3.90
2022-10-05T22:46:15.358Z,3.75
2022-10-05T22:48:41.933Z,3.15
2022-10-05T22:51:08.867Z,4.10
2022-10-05T22:53:35.581Z,2.83
2022-10-05T22:56:10.665Z,5.25
2022-10-05T22:58:37.371Z,4.13
2022-10-05T23:01:06.039Z,4.90
2022-10-05T23:03:33.595Z,3.60
2022-10-05T23:06:05.300Z,3.60
2022-10-05T23:08:33.255Z,4.22
2022-10-05T23:11:03.782Z,5.82
2022-10-05T23:13:30.718Z,2.90
2022-10-05T23:15:57.543Z,3.03
2022-10-05T23:18:24.300Z,5.45
2022-10-05T23:20:55.285Z,3.17
2022-10-05T23:23:23.065Z,3.50
2022-10-05T23:25:50.237Z,2.72
2022-10-05T23:28:16.873Z,3.65
2022-10-05T23:30:43.593Z,5.07
2022-10-05T23:33:10.114Z,3.80
2022-10-05T23:35:36.569Z,2.60
2022-10-05T23:38:03.298Z,3.20
2022-10-05T23:40:29.773Z,4.07
2022-10-05T23:42:56.426Z,4.82
2022-10-05T23:45:22.873Z,4.28
2022-10-05T23:47:49.356Z,3.03
2022-10-05T23:50:16.618Z,3.72
2022-10-05T23:52:43.129Z,3.00
2022-10-05T23:55:09.955Z,2.78
2022-10-05T23:57:36.479Z,2.75
